Time;durP1;ratioP1;P1;durP2;ratioP2;P2;SDS_P1;SDS_P2;PMS_P1;PMS_P2;Temp;Humidity;BMP_temperature;BMP_pressure;BME280_temperature;BME280_humidity;BME280_pressure;Samples;Min_cycle;Max_cycle;Signal;HPM_P1;HPM_P2
2024/04/15 00:01:52;;;;;;;9.43;3.80;;;14.70;99.90;;;;;;5453995;26;19999;-82
2024/04/15 00:04:18;;;;;;;14.35;4.32;;;14.60;99.90;;;;;;5452904;26;19999;-81
2024/04/15 00:06:43;;;;;;;12.55;4.15;;;14.50;99.90;;;;;;5452745;26;20005;-80
2024/04/15 00:09:09;;;;;;;12.20;4.47;;;14.60;99.90;;;;;;5453533;26;20347;-82
2024/04/15 00:11:35;;;;;;;11.70;4.40;;;14.60;99.90;;;;;;5451462;26;19990;-78
2024/04/15 00:14:00;;;;;;;18.30;4.20;;;14.60;99.90;;;;;;5453483;26;20006;-80
2024/04/15 00:16:26;;;;;;;12.15;4.20;;;14.60;99.90;;;;;;5451468;26;20007;-81
2024/04/15 00:18:52;;;;;;;9.10;3.83;;;14.60;99.90;;;;;;5453588;26;20035;-79
2024/04/15 00:21:17;;;;;;;14.13;4.22;;;14.60;99.90;;;;;;5453408;26;20059;-78
2024/04/15 00:23:43;;;;;;;10.73;4.32;;;14.60;99.90;;;;;;5452580;26;20440;-81
2024/04/15 00:26:09;;;;;;;14.80;4.15;;;14.60;99.90;;;;;;5453265;26;20408;-81
2024/04/15 00:28:34;;;;;;;12.27;3.67;;;14.60;99.90;;;;;;5452048;26;19995;-79
2024/04/15 00:31:00;;;;;;;10.35;4.05;;;14.50;99.90;;;;;;5453266;26;20002;-79
2024/04/15 00:33:26;;;;;;;10.55;3.35;;;14.50;99.90;;;;;;5453844;26;20458;-80
2024/04/15 00:35:51;;;;;;;12.20;4.38;;;14.50;99.90;;;;;;5452572;26;19998;-78
2024/04/15 00:38:17;;;;;;;11.35;4.35;;;14.50;99.90;;;;;;5453498;26;19999;-76
2024/04/15 00:40:43;;;;;;;10.45;3.67;;;14.40;99.90;;;;;;5452832;26;20706;-79
2024/04/15 00:43:09;;;;;;;8.68;4.38;;;14.40;99.90;;;;;;5452714;26;20002;-77
2024/04/15 00:45:35;;;;;;;13.32;4.10;;;14.30;99.90;;;;;;5453270;26;20351;-75
2024/04/15 00:48:03;;;;;;;7.70;3.50;;;14.20;99.90;;;;;;5453362;26;20019;-72
2024/04/15 00:50:32;;;;;;;16.85;4.32;;;14.20;99.90;;;;;;5452830;26;20439;-73
2024/04/15 00:53:03;;;;;;;9.60;3.78;;;14.10;99.90;;;;;;5451941;26;20005;-75
2024/04/15 00:55:32;;;;;;;9.20;4.28;;;14.00;99.90;;;;;;5452050;26;20451;-78
2024/04/15 00:57:59;;;;;;;7.97;3.60;;;13.90;99.90;;;;;;5451830;26;20014;-74
2024/04/15 01:00:25;;;;;;;8.45;3.42;;;13.70;99.90;;;;;;5452929;26;20010;-75
2024/04/15 01:02:51;;;;;;;8.90;3.05;;;13.70;99.90;;;;;;5451048;26;20344;-73
2024/04/15 01:05:17;;;;;;;7.50;3.45;;;13.60;99.90;;;;;;5444037;26;19996;-72
2024/04/15 01:07:44;;;;;;;6.68;3.45;;;13.60;99.90;;;;;;5451758;26;20037;-72
2024/04/15 01:10:10;;;;;;;8.77;3.05;;;13.60;99.90;;;;;;5451496;26;20409;-76
2024/04/15 01:12:36;;;;;;;7.85;2.65;;;13.50;99.90;;;;;;5452801;26;19999;-78
2024/04/15 01:15:02;;;;;;;7.25;2.60;;;13.50;99.90;;;;;;5452862;26;20617;-76
2024/04/15 01:17:27;;;;;;;5.95;2.85;;;13.60;99.90;;;;;;5450376;26;20001;-76
2024/04/15 01:19:59;;;;;;;8.38;2.95;;;13.60;99.90;;;;;;5452151;26;20012;-72
2024/04/15 01:22:29;;;;;;;7.07;2.87;;;13.50;99.90;;;;;;5452703;26;20081;-75
2024/04/15 01:24:55;;;;;;;7.43;2.65;;;13.50;99.90;;;;;;5452022;26;20002;-72
2024/04/15 01:27:20;;;;;;;7.55;2.80;;;13.50;99.90;;;;;;5452544;26;20007;-73
2024/04/15 01:29:46;;;;;;;5.68;2.33;;;13.50;99.90;;;;;;5451615;26;20537;-72
2024/04/15 01:32:12;;;;;;;7.85;3.25;;;13.50;99.90;;;;;;5451299;26;20364;-72
2024/04/15 01:34:37;;;;;;;9.25;2.65;;;13.50;99.90;;;;;;5452722;26;20023;-73
2024/04/15 01:37:05;;;;;;;8.00;2.67;;;13.50;99.90;;;;;;5452276;26;19991;-73
2024/04/15 01:39:31;;;;;;;7.22;3.00;;;13.50;99.90;;;;;;5453051;26;20006;-72
2024/04/15 01:41:56;;;;;;;8.35;2.60;;;13.40;99.90;;;;;;5452790;26;20335;-75
2024/04/15 01:44:22;;;;;;;12.07;2.75;;;13.40;99.90;;;;;;5451795;26;19999;-72
2024/04/15 01:46:48;;;;;;;4.40;2.33;;;13.30;99.90;;;;;;5452880;26;20515;-72
2024/04/15 01:49:13;;;;;;;6.80;2.03;;;13.30;99.90;;;;;;5453176;26;20746;-72
2024/04/15 01:51:39;;;;;;;9.45;2.42;;;13.30;99.90;;;;;;5451985;26;20557;-72
2024/04/15 01:54:05;;;;;;;8.55;2.60;;;13.30;99.90;;;;;;5451113;26;20484;-72
2024/04/15 01:56:30;;;;;;;6.07;2.60;;;13.20;99.90;;;;;;5451136;26;20435;-72
2024/04/15 01:58:56;;;;;;;11.68;2.65;;;13.20;99.90;;;;;;5448677;26;20443;-72
2024/04/15 02:01:22;;;;;;;9.55;3.35;;;13.20;99.90;;;;;;5450506;26;20039;-71
2024/04/15 02:03:48;;;;;;;6.95;2.60;;;13.20;99.90;;;;;;5448928;26;19999;-71
2024/04/15 02:06:14;;;;;;;7.45;2.40;;;13.10;99.90;;;;;;5451080;26;20006;-71
2024/04/15 02:08:40;;;;;;;9.02;2.80;;;13.00;99.90;;;;;;5452555;26;19999;-72
2024/04/15 02:11:08;;;;;;;8.80;2.25;;;13.00;99.90;;;;;;5452512;26;20414;-71
2024/04/15 02:13:34;;;;;;;8.18;3.00;;;12.90;99.90;;;;;;5452897;26;19999;-71
2024/04/15 02:16:00;;;;;;;7.30;2.65;;;12.80;99.90;;;;;;5451848;26;20344;-73
2024/04/15 02:18:25;;;;;;;8.15;2.17;;;12.80;99.90;;;;;;5448646;26;20451;-72
2024/04/15 02:20:51;;;;;;;10.13;2.60;;;12.70;99.90;;;;;;5451201;26;19999;-72
2024/04/15 02:23:17;;;;;;;9.93;2.40;;;12.70;99.90;;;;;;5451259;26;19998;-72
2024/04/15 02:25:43;;;;;;;6.10;2.28;;;12.70;99.90;;;;;;5449006;26;20459;-73
2024/04/15 02:28:08;;;;;;;13.60;2.15;;;12.60;99.90;;;;;;5449898;26;19994;-71
2024/04/15 02:30:35;;;;;;;5.80;2.28;;;12.70;99.90;;;;;;5450646;26;20360;-71
2024/04/15 02:33:01;;;;;;;8.35;2.10;;;12.60;99.90;;;;;;5452203;26;20014;-72
2024/04/15 02:35:27;;;;;;;10.40;2.38;;;12.60;99.90;;;;;;5452332;26;20011;-72
2024/04/15 02:37:52;;;;;;;7.82;2.13;;;12.50;99.90;;;;;;5448560;26;19999;-72
2024/04/15 02:40:18;;;;;;;9.00;2.53;;;12.40;99.90;;;;;;5451746;26;20455;-72
2024/04/15 02:42:44;;;;;;;9.18;2.13;;;12.50;99.90;;;;;;5452240;26;19999;-72
2024/04/15 02:45:11;;;;;;;8.18;2.10;;;12.40;99.90;;;;;;5451841;26;19999;-72
2024/04/15 02:47:36;;;;;;;7.88;2.08;;;12.40;99.90;;;;;;5452307;26;20006;-73
2024/04/15 02:50:02;;;;;;;10.45;1.92;;;12.40;99.90;;;;;;5451889;26;20012;-71
2024/04/15 02:52:29;;;;;;;8.32;2.13;;;12.40;99.90;;;;;;5451981;26;20009;-72
2024/04/15 02:54:54;;;;;;;9.48;1.73;;;12.40;99.90;;;;;;5451600;26;20009;-72
2024/04/15 02:57:20;;;;;;;10.65;2.65;;;12.40;99.90;;;;;;5451560;26;20023;-72
2024/04/15 02:59:46;;;;;;;9.75;2.13;;;12.40;99.90;;;;;;5451857;26;20345;-71
2024/04/15 03:02:11;;;;;;;5.93;2.22;;;12.40;99.90;;;;;;5449807;26;20436;-73
2024/04/15 03:04:37;;;;;;;7.75;2.10;;;12.40;99.90;;;;;;5453192;26;19998;-72
2024/04/15 03:07:03;;;;;;;5.60;2.08;;;12.40;99.90;;;;;;5455477;26;20014;-73
2024/04/15 03:09:28;;;;;;;10.82;1.70;;;12.40;99.90;;;;;;5454526;26;20458;-73
2024/04/15 03:11:54;;;;;;;17.42;2.30;;;12.30;99.90;;;;;;5454157;26;19999;-72
2024/04/15 03:14:20;;;;;;;14.32;2.78;;;12.30;99.90;;;;;;5455961;26;20335;-72
2024/04/15 03:16:45;;;;;;;15.00;2.03;;;12.20;99.90;;;;;;5455468;26;20440;-72
2024/04/15 03:19:11;;;;;;;12.07;2.10;;;12.30;99.90;;;;;;5453495;26;20018;-72
2024/04/15 03:21:37;;;;;;;6.60;2.20;;;12.30;99.90;;;;;;5454867;26;20003;-72
2024/04/15 03:24:03;;;;;;;9.85;2.30;;;12.30;99.90;;;;;;5453162;26;20451;-72
2024/04/15 03:26:28;;;;;;;10.60;2.40;;;12.20;99.90;;;;;;5453737;26;20320;-72
2024/04/15 03:28:54;;;;;;;7.78;2.08;;;12.10;99.90;;;;;;5454254;26;20014;-74
2024/04/15 03:31:20;;;;;;;10.18;1.85;;;12.10;99.90;;;;;;5455185;26;20339;-73
2024/04/15 03:33:45;;;;;;;9.93;2.08;;;12.10;99.90;;;;;;5455195;26;20079;-73
2024/04/15 03:36:12;;;;;;;11.52;2.22;;;12.20;99.90;;;;;;5454218;26;20329;-73
2024/04/15 03:38:37;;;;;;;10.32;2.40;;;12.10;99.90;;;;;;5454669;26;20003;-72
2024/04/15 03:41:03;;;;;;;9.55;2.10;;;12.10;99.90;;;;;;5453900;26;20343;-73
2024/04/15 03:43:29;;;;;;;11.13;2.10;;;12.10;99.90;;;;;;5454516;26;20432;-71
2024/04/15 03:45:54;;;;;;;13.20;2.53;;;12.10;99.90;;;;;;5452802;26;20006;-72
2024/04/15 03:48:20;;;;;;;9.02;2.13;;;12.00;99.90;;;;;;5454958;26;20436;-73
2024/04/15 03:50:46;;;;;;;12.50;2.22;;;12.00;99.90;;;;;;5454385;26;20071;-72
2024/04/15 03:53:11;;;;;;;12.80;2.45;;;12.00;99.90;;;;;;5453999;26;20653;-72
2024/04/15 03:55:37;;;;;;;11.18;2.00;;;12.00;99.90;;;;;;5452824;26;20418;-71
2024/04/15 03:58:03;;;;;;;14.55;1.90;;;12.00;99.90;;;;;;5454937;26;20463;-71
2024/04/15 04:00:30;;;;;;;11.32;2.45;;;12.00;99.90;;;;;;5453463;26;20347;-71
2024/04/15 04:02:56;;;;;;;15.35;2.60;;;11.90;99.90;;;;;;5454329;26;20007;-71
2024/04/15 04:05:21;;;;;;;9.50;2.47;;;11.80;99.90;;;;;;5453794;26;20075;-71
2024/04/15 04:07:47;;;;;;;15.70;2.92;;;11.80;99.90;;;;;;5453089;26;19995;-72
2024/04/15 04:10:14;;;;;;;9.88;2.50;;;11.80;99.90;;;;;;5453421;26;20017;-71
2024/04/15 04:12:40;;;;;;;9.27;2.08;;;11.90;99.90;;;;;;5452631;26;19999;-72
2024/04/15 04:15:06;;;;;;;8.52;2.30;;;11.90;99.90;;;;;;5454337;26;20343;-71
2024/04/15 04:17:31;;;;;;;15.70;2.42;;;11.90;99.90;;;;;;5453827;26;20656;-71
2024/04/15 04:19:57;;;;;;;7.50;2.28;;;11.90;99.90;;;;;;5454389;26;20013;-71
2024/04/15 04:22:23;;;;;;;10.05;2.30;;;11.80;99.90;;;;;;5453402;26;20454;-71
2024/04/15 04:24:48;;;;;;;10.18;2.20;;;12.00;99.90;;;;;;5453130;26;20006;-71
2024/04/15 04:27:14;;;;;;;12.07;2.47;;;12.00;99.90;;;;;;5454032;26;19995;-74
2024/04/15 04:29:40;;;;;;;9.20;2.40;;;12.00;99.90;;;;;;5452706;26;20067;-72
2024/04/15 04:32:06;;;;;;;13.55;2.40;;;12.00;99.90;;;;;;5454207;26;20067;-71
2024/04/15 04:34:34;;;;;;;9.90;2.45;;;11.90;99.90;;;;;;5451990;26;20035;-71
2024/04/15 04:37:00;;;;;;;11.52;2.40;;;11.90;99.90;;;;;;5451862;26;20006;-71
2024/04/15 04:39:26;;;;;;;11.70;2.10;;;11.70;99.90;;;;;;5452103;26;19998;-71
2024/04/15 04:41:52;;;;;;;9.93;2.33;;;11.80;99.90;;;;;;5452554;26;20380;-71
2024/04/15 04:44:17;;;;;;;11.68;2.28;;;11.80;99.90;;;;;;5453485;26;20003;-71
2024/04/15 04:46:43;;;;;;;8.15;2.40;;;11.70;99.90;;;;;;5454220;26;20013;-71
2024/04/15 04:49:10;;;;;;;8.98;2.53;;;11.70;99.90;;;;;;5449921;26;20032;-71
2024/04/15 04:51:36;;;;;;;12.68;3.10;;;11.80;99.90;;;;;;5452127;26;19999;-71
2024/04/15 04:54:02;;;;;;;12.93;2.72;;;11.70;99.90;;;;;;5450712;26;20369;-71
2024/04/15 04:56:27;;;;;;;9.80;2.95;;;11.80;99.90;;;;;;5452789;26;20015;-71
2024/04/15 04:58:53;;;;;;;12.27;2.72;;;11.80;99.90;;;;;;5452701;26;19999;-72
2024/04/15 05:01:19;;;;;;;14.77;3.05;;;11.80;99.90;;;;;;5453420;26;20014;-71
2024/04/15 05:03:46;;;;;;;6.15;2.53;;;11.70;99.90;;;;;;5453117;26;19998;-71
2024/04/15 05:06:14;;;;;;;10.07;3.00;;;11.70;99.90;;;;;;5451282;26;20042;-70
2024/04/15 05:08:40;;;;;;;13.40;3.05;;;11.70;99.90;;;;;;5451793;26;20348;-71
2024/04/15 05:11:06;;;;;;;5.88;2.47;;;11.60;99.90;;;;;;5451284;26;20010;-72
2024/04/15 05:13:33;;;;;;;11.77;2.97;;;11.40;99.90;;;;;;5453077;26;20010;-71
2024/04/15 05:16:06;;;;;;;13.02;2.75;;;11.40;99.90;;;;;;5451479;26;20002;-72
2024/04/15 05:18:33;;;;;;;6.55;3.30;;;11.40;99.90;;;;;;5452204;26;20075;-72
2024/04/15 05:21:00;;;;;;;14.10;3.22;;;11.50;99.90;;;;;;5452742;26;20043;-71
2024/04/15 05:23:26;;;;;;;14.75;2.72;;;11.40;99.90;;;;;;5453139;26;20003;-70
2024/04/15 05:25:54;;;;;;;8.32;3.10;;;11.50;99.90;;;;;;5452924;26;19999;-72
2024/04/15 05:28:20;;;;;;;10.88;3.05;;;11.50;99.90;;;;;;5428299;26;20010;-72
2024/04/15 05:30:45;;;;;;;9.40;2.88;;;11.40;99.90;;;;;;5452249;26;20110;-71
2024/04/15 05:33:11;;;;;;;11.48;2.75;;;11.50;99.90;;;;;;5452338;26;20462;-72
2024/04/15 05:35:37;;;;;;;9.65;3.45;;;11.40;99.90;;;;;;5445385;26;20098;-72
2024/04/15 05:38:02;;;;;;;10.30;2.92;;;11.40;99.90;;;;;;5452417;26;20003;-71
2024/04/15 05:40:28;;;;;;;14.18;3.13;;;11.50;99.90;;;;;;5452032;26;20443;-71
2024/04/15 05:42:54;;;;;;;9.50;3.00;;;11.30;99.90;;;;;;5452068;26;19998;-70
2024/04/15 05:45:19;;;;;;;13.88;2.60;;;11.20;99.90;;;;;;5452458;26;20329;-71
2024/04/15 05:47:45;;;;;;;10.48;3.33;;;11.20;99.90;;;;;;5449899;26;20336;-72
2024/04/15 05:50:11;;;;;;;13.05;3.30;;;11.20;99.90;;;;;;5452814;26;20010;-72
2024/04/15 05:52:36;;;;;;;12.63;3.00;;;11.20;99.90;;;;;;5451783;26;20335;-71
2024/04/15 05:55:02;;;;;;;13.68;3.55;;;11.30;99.90;;;;;;5451053;26;20011;-71
2024/04/15 05:57:28;;;;;;;11.05;3.17;;;11.30;99.90;;;;;;5449400;26;19998;-73
2024/04/15 05:59:54;;;;;;;6.28;2.70;;;11.20;99.90;;;;;;5452138;26;20462;-72
2024/04/15 06:02:19;;;;;;;13.95;2.58;;;11.30;99.90;;;;;;5442748;26;20014;-71
2024/04/15 06:04:45;;;;;;;14.38;3.10;;;11.40;99.90;;;;;;5443016;26;20014;-72
2024/04/15 06:07:11;;;;;;;14.10;3.00;;;11.30;99.90;;;;;;5440954;26;19991;-70
2024/04/15 06:09:40;;;;;;;11.10;3.30;;;11.20;99.90;;;;;;5451375;26;20014;-74
2024/04/15 06:12:06;;;;;;;11.23;3.13;;;11.30;99.90;;;;;;5414649;26;20007;-71
2024/04/15 06:14:33;;;;;;;16.33;3.63;;;11.20;99.90;;;;;;5417876;26;19999;-71
2024/04/15 06:17:00;;;;;;;12.43;3.88;;;11.20;99.90;;;;;;5428227;26;20017;-69
2024/04/15 06:19:27;;;;;;;17.30;3.20;;;11.20;99.90;;;;;;5425692;26;20015;-72
2024/04/15 06:21:54;;;;;;;14.00;4.05;;;11.10;99.90;;;;;;5416739;26;20014;-70
2024/04/15 06:24:20;;;;;;;10.88;3.47;;;11.10;99.90;;;;;;5423865;26;20003;-71
2024/04/15 06:26:47;;;;;;;14.15;3.47;;;11.20;99.90;;;;;;5430011;26;20344;-71
2024/04/15 06:29:13;;;;;;;12.52;3.47;;;11.10;99.90;;;;;;5423564;26;19999;-72
2024/04/15 06:31:39;;;;;;;18.52;4.38;;;11.10;99.90;;;;;;5425976;26;20089;-70
2024/04/15 06:34:05;;;;;;;10.55;3.22;;;11.20;99.90;;;;;;5424740;26;20011;-71
2024/04/15 06:36:31;;;;;;;18.00;3.90;;;11.20;99.90;;;;;;5427291;26;20007;-71
2024/04/15 06:38:57;;;;;;;17.95;4.13;;;11.20;99.90;;;;;;5424281;26;20406;-71
2024/04/15 06:41:22;;;;;;;14.10;3.75;;;11.20;99.90;;;;;;5432477;26;19995;-71
2024/04/15 06:43:48;;;;;;;9.30;3.50;;;11.20;99.90;;;;;;5423760;26;19999;-72
2024/04/15 06:46:14;;;;;;;19.75;4.10;;;11.30;99.90;;;;;;5432965;26;20084;-71
2024/04/15 06:48:43;;;;;;;12.15;3.92;;;11.20;99.90;;;;;;5429362;26;19995;-72
2024/04/15 06:51:09;;;;;;;11.02;4.40;;;11.20;99.90;;;;;;5427689;26;20007;-73
2024/04/15 06:53:36;;;;;;;15.15;3.42;;;11.20;99.90;;;;;;5426334;26;20009;-71
2024/04/15 06:56:02;;;;;;;16.98;4.15;;;11.20;99.90;;;;;;5420531;26;20003;-73
2024/04/15 06:58:28;;;;;;;12.23;4.20;;;11.20;99.90;;;;;;5424410;26;20343;-72
2024/04/15 07:00:57;;;;;;;14.82;4.55;;;11.30;99.90;;;;;;5426282;26;20736;-71
2024/04/15 07:03:23;;;;;;;18.33;4.57;;;11.40;99.90;;;;;;5425850;26;20003;-72
2024/04/15 07:05:49;;;;;;;15.52;4.30;;;11.40;99.90;;;;;;5430639;26;20007;-71
2024/04/15 07:08:15;;;;;;;17.13;4.10;;;11.50;99.90;;;;;;5428864;26;20018;-71
2024/04/15 07:10:41;;;;;;;18.45;4.07;;;11.50;99.90;;;;;;5433674;26;20007;-74
2024/04/15 07:13:08;;;;;;;15.68;4.53;;;11.50;99.90;;;;;;5429062;26;20098;-71
2024/04/15 07:15:34;;;;;;;16.27;4.15;;;11.60;99.90;;;;;;5423480;26;19995;-72
2024/04/15 07:17:59;;;;;;;13.18;4.07;;;11.70;99.90;;;;;;5422019;26;20010;-71
2024/04/15 07:20:25;;;;;;;17.90;4.85;;;11.70;99.90;;;;;;5424706;26;19995;-72
2024/04/15 07:22:51;;;;;;;11.45;3.72;;;11.70;99.90;;;;;;5424326;26;20125;-74
2024/04/15 07:25:16;;;;;;;12.30;3.58;;;11.70;99.90;;;;;;5427449;26;20472;-71
2024/04/15 07:27:42;;;;;;;10.90;3.22;;;11.80;99.90;;;;;;5426950;26;20348;-71
2024/04/15 07:30:09;;;;;;;10.75;2.75;;;12.00;99.90;;;;;;5421865;26;20007;-71
2024/04/15 07:32:34;;;;;;;12.48;3.80;;;12.20;99.90;;;;;;5426986;26;20025;-71
2024/04/15 07:35:00;;;;;;;15.65;3.42;;;12.30;99.90;;;;;;5420788;26;20011;-74
2024/04/15 07:37:26;;;;;;;16.75;4.47;;;12.40;99.90;;;;;;5424019;26;20444;-71
2024/04/15 07:39:51;;;;;;;14.55;3.22;;;12.30;99.90;;;;;;5417003;26;20039;-71
2024/04/15 07:42:18;;;;;;;12.15;3.63;;;12.40;99.90;;;;;;5417344;26;20015;-70
2024/04/15 07:44:48;;;;;;;12.68;3.47;;;12.40;99.90;;;;;;5419566;26;20011;-72
2024/04/15 07:47:13;;;;;;;12.00;3.05;;;12.40;99.90;;;;;;5415607;26;20541;-71
2024/04/15 07:49:39;;;;;;;10.52;3.35;;;12.50;99.90;;;;;;5417934;26;19999;-74
2024/04/15 07:52:05;;;;;;;11.60;3.35;;;12.50;99.90;;;;;;5423371;26;20007;-73
2024/04/15 07:54:32;;;;;;;12.45;2.80;;;12.60;99.90;;;;;;5428330;26;19999;-70
2024/04/15 07:56:58;;;;;;;11.20;2.75;;;12.70;99.90;;;;;;5424800;26;20071;-71
2024/04/15 07:59:23;;;;;;;17.45;3.78;;;12.70;99.90;;;;;;5428477;26;20444;-72
2024/04/15 08:01:49;;;;;;;15.80;3.90;;;12.80;99.90;;;;;;5430029;26;20004;-73
2024/04/15 08:04:15;;;;;;;12.13;3.65;;;13.00;99.90;;;;;;5422265;26;20228;-74
2024/04/15 08:06:41;;;;;;;12.43;3.72;;;13.00;99.90;;;;;;5428164;26;20009;-74
2024/04/15 08:09:07;;;;;;;13.77;3.88;;;13.10;99.90;;;;;;5435597;26;20449;-73
2024/04/15 08:11:33;;;;;;;8.40;3.80;;;13.10;99.90;;;;;;5436307;26;20130;-71
2024/04/15 08:14:01;;;;;;;8.93;4.47;;;13.10;99.90;;;;;;5436563;26;20010;-71
2024/04/15 08:16:26;;;;;;;13.32;3.63;;;13.10;99.90;;;;;;5430598;26;20018;-71
2024/04/15 08:18:53;;;;;;;11.25;3.20;;;13.20;99.90;;;;;;5433862;26;20011;-74
2024/04/15 08:21:20;;;;;;;13.55;3.40;;;13.20;99.90;;;;;;5430037;26;20017;-72
2024/04/15 08:23:46;;;;;;;15.63;4.22;;;13.30;99.90;;;;;;5437776;26;20079;-74
2024/04/15 08:26:12;;;;;;;13.57;3.35;;;13.30;99.90;;;;;;5440844;26;20038;-73
2024/04/15 08:28:38;;;;;;;13.20;3.53;;;13.40;99.90;;;;;;5438526;26;19999;-70
2024/04/15 08:31:04;;;;;;;11.73;3.80;;;13.30;99.90;;;;;;5437065;26;20070;-74
2024/04/15 08:33:29;;;;;;;12.10;3.17;;;13.30;99.90;;;;;;5431501;26;20071;-72
2024/04/15 08:35:55;;;;;;;13.45;2.97;;;13.30;99.90;;;;;;5434449;26;20007;-72
2024/04/15 08:38:21;;;;;;;11.30;3.08;;;13.40;99.90;;;;;;5438533;26;20336;-71
2024/04/15 08:40:55;;;;;;;11.82;3.22;;;13.40;99.90;;;;;;5435539;26;20010;-71
2024/04/15 08:43:22;;;;;;;10.30;2.63;;;13.60;99.90;;;;;;5428625;26;20076;-71
2024/04/15 08:45:53;;;;;;;7.72;2.70;;;13.60;99.90;;;;;;5433319;26;19998;-74
2024/04/15 08:48:22;;;;;;;7.55;2.42;;;13.70;99.90;;;;;;5432098;26;20010;-73
2024/04/15 08:50:48;;;;;;;9.40;2.63;;;13.90;99.90;;;;;;5434377;26;20613;-75
2024/04/15 08:53:13;;;;;;;5.50;2.10;;;14.20;99.90;;;;;;5439372;26;20010;-71
2024/04/15 08:55:39;;;;;;;8.95;2.38;;;14.30;99.90;;;;;;5432182;26;20013;-69
2024/04/15 08:58:05;;;;;;;9.45;2.28;;;14.40;99.90;;;;;;5434814;26;20367;-74
2024/04/15 09:00:33;;;;;;;9.70;2.33;;;14.40;99.90;;;;;;5439041;26;19998;-71
2024/04/15 09:03:00;;;;;;;10.73;2.53;;;14.50;99.90;;;;;;5439848;26;19995;-73
2024/04/15 09:05:26;;;;;;;5.15;1.92;;;14.50;99.90;;;;;;5439759;26;19999;-71
2024/04/15 09:07:51;;;;;;;6.68;2.30;;;14.70;99.90;;;;;;5464692;26;20339;-71
2024/04/15 09:10:17;;;;;;;9.52;2.47;;;14.70;99.90;;;;;;5433035;26;20021;-71
2024/04/15 09:12:43;;;;;;;9.82;2.40;;;14.70;99.90;;;;;;5435890;26;20469;-72
2024/04/15 09:15:14;;;;;;;11.23;2.08;;;14.80;99.90;;;;;;5430304;26;19998;-71
2024/04/15 09:17:40;;;;;;;14.70;2.58;;;14.80;99.90;;;;;;5429106;26;20443;-72
2024/04/15 09:20:07;;;;;;;11.90;1.90;;;14.70;99.90;;;;;;5433409;26;20018;-70
2024/04/15 09:22:34;;;;;;;9.40;2.42;;;14.60;99.90;;;;;;5439057;26;20018;-70
2024/04/15 09:25:03;;;;;;;7.20;1.63;;;14.50;99.90;;;;;;5434639;26;20415;-72
2024/04/15 09:27:29;;;;;;;8.32;1.90;;;14.50;99.90;;;;;;5436656;26;20081;-72
2024/04/15 09:29:56;;;;;;;8.60;1.70;;;14.50;99.90;;;;;;5433992;26;20014;-71
2024/04/15 09:32:22;;;;;;;9.35;2.28;;;14.50;99.90;;;;;;5425585;26;20027;-73
2024/04/15 09:34:53;;;;;;;8.95;2.45;;;14.60;99.90;;;;;;5416997;26;20084;-71
2024/04/15 09:37:19;;;;;;;9.55;1.92;;;14.80;99.90;;;;;;5424232;26;20008;-73
2024/04/15 09:39:45;;;;;;;8.85;2.47;;;14.90;99.90;;;;;;5433847;26;20407;-74
2024/04/15 09:42:15;;;;;;;5.28;1.65;;;15.10;99.90;;;;;;5432044;26;20011;-73
2024/04/15 09:44:45;;;;;;;8.45;1.42;;;15.00;99.90;;;;;;5433325;26;20013;-71
2024/04/15 09:47:12;;;;;;;8.15;2.15;;;15.00;99.90;;;;;;5430222;26;20011;-74
2024/04/15 09:49:38;;;;;;;8.65;1.77;;;15.10;99.90;;;;;;5432505;26;19999;-71
2024/04/15 09:52:12;;;;;;;9.45;1.95;;;15.00;99.90;;;;;;5426613;26;20009;-74
2024/04/15 09:54:42;;;;;;;9.77;2.10;;;15.20;99.90;;;;;;5425890;26;20003;-72
2024/04/15 09:57:40;;;;;;;13.10;2.30;;;15.30;99.90;;;;;;5432546;26;19998;-72
2024/04/15 10:00:13;;;;;;;9.63;2.03;;;15.40;99.90;;;;;;5424805;26;20635;-72
2024/04/15 10:02:48;;;;;;;4.63;1.77;;;15.50;99.90;;;;;;5426255;26;20007;-74
2024/04/15 10:05:23;;;;;;;11.38;2.10;;;15.60;99.90;;;;;;5424750;26;20088;-73
2024/04/15 10:07:51;;;;;;;10.10;1.80;;;15.60;99.90;;;;;;5425592;26;20454;-72
2024/04/15 10:10:19;;;;;;;12.70;2.17;;;15.70;99.90;;;;;;5426317;26;19999;-74
2024/04/15 10:12:49;;;;;;;11.95;1.90;;;15.70;99.90;;;;;;5426012;26;20022;-72
2024/04/15 10:15:20;;;;;;;5.40;1.42;;;15.90;99.90;;;;;;5421022;26;20011;-72
2024/04/15 10:18:01;;;;;;;8.60;2.20;;;15.80;99.90;;;;;;5419869;26;20492;-74
2024/04/15 10:20:35;;;;;;;10.10;2.13;;;15.70;99.90;;;;;;5417560;26;20007;-74
2024/04/15 10:23:05;;;;;;;9.75;1.90;;;15.70;99.90;;;;;;5423718;26;20459;-73
2024/04/15 10:25:31;;;;;;;11.00;1.83;;;15.40;99.90;;;;;;5421904;26;19995;-74
2024/04/15 10:27:58;;;;;;;4.63;1.40;;;15.30;99.90;;;;;;5419176;26;20525;-74
2024/04/15 10:30:33;;;;;;;8.45;2.10;;;15.30;99.90;;;;;;5420751;26;20018;-75
2024/04/15 10:33:04;;;;;;;7.30;1.98;;;15.30;99.90;;;;;;5423579;26;20502;-73
2024/04/15 10:35:33;;;;;;;9.13;1.80;;;15.30;99.90;;;;;;5414845;26;20023;-75
2024/04/15 10:38:01;;;;;;;7.88;2.05;;;15.20;99.90;;;;;;5421685;26;20017;-72
2024/04/15 10:40:31;;;;;;;9.50;1.50;;;15.20;99.90;;;;;;5427704;26;20397;-75
2024/04/15 10:42:58;;;;;;;6.70;1.70;;;15.00;99.90;;;;;;5424801;26;19999;-73
2024/04/15 10:45:26;;;;;;;11.40;2.00;;;15.00;99.90;;;;;;5422538;26;20010;-74
2024/04/15 10:47:52;;;;;;;5.13;1.67;;;14.80;99.90;;;;;;5418852;26;20008;-74
2024/04/15 10:50:18;;;;;;;7.93;2.25;;;14.70;99.90;;;;;;5427224;26;20014;-74
2024/04/15 10:52:44;;;;;;;7.05;1.58;;;14.60;99.90;;;;;;5425357;26;20362;-75
2024/04/15 10:55:10;;;;;;;8.73;1.60;;;14.60;99.90;;;;;;5423590;26;20003;-75
2024/04/15 10:57:36;;;;;;;9.52;2.50;;;14.50;99.90;;;;;;5429076;26;20008;-75
2024/04/15 11:00:03;;;;;;;7.70;1.92;;;14.50;99.90;;;;;;5419727;26;20092;-75
2024/04/15 11:02:29;;;;;;;10.35;2.10;;;14.50;99.90;;;;;;5422892;26;20516;-76
2024/04/15 11:04:55;;;;;;;5.65;1.60;;;14.50;99.90;;;;;;5421406;26;20046;-75
2024/04/15 11:07:20;;;;;;;12.15;2.40;;;14.30;99.90;;;;;;5422023;26;20645;-75
2024/04/15 11:09:47;;;;;;;9.35;1.88;;;14.30;99.90;;;;;;5427051;26;20328;-73
2024/04/15 11:12:12;;;;;;;7.82;2.00;;;14.30;99.90;;;;;;5422975;26;20435;-74
2024/04/15 11:14:38;;;;;;;7.43;1.88;;;14.40;99.90;;;;;;5423995;26;20000;-74
2024/04/15 11:17:04;;;;;;;14.73;2.03;;;14.30;99.90;;;;;;5425759;26;20004;-72
2024/04/15 11:19:30;;;;;;;15.45;2.35;;;14.20;99.90;;;;;;5422101;26;20012;-72
2024/04/15 11:22:14;;;;;;;9.50;2.10;;;14.20;99.90;;;;;;5426437;26;20000;-74
2024/04/15 11:24:40;;;;;;;14.35;2.92;;;14.00;99.90;;;;;;5420458;26;20013;-74
2024/04/15 11:27:09;;;;;;;6.50;1.88;;;13.90;99.90;;;;;;5421488;26;20417;-76
2024/04/15 11:29:35;;;;;;;15.20;2.00;;;13.60;99.90;;;;;;5425489;26;19999;-76
2024/04/15 11:32:01;;;;;;;4.40;1.60;;;13.50;99.90;;;;;;5423784;26;20011;-77
2024/04/15 11:34:27;;;;;;;10.05;2.40;;;13.40;99.90;;;;;;5426057;26;20032;-76
2024/04/15 11:36:53;;;;;;;5.28;2.00;;;13.60;99.90;;;;;;5420174;26;20002;-76
2024/04/15 11:39:19;;;;;;;7.90;1.92;;;13.50;99.90;;;;;;5423306;26;20010;-73
2024/04/15 11:41:45;;;;;;;7.90;2.65;;;13.50;99.90;;;;;;5427148;26;20027;-74
2024/04/15 11:44:12;;;;;;;7.43;2.08;;;13.30;99.90;;;;;;5433906;26;20328;-77
2024/04/15 11:46:42;;;;;;;8.25;1.90;;;13.30;99.90;;;;;;5438402;26;20002;-76
2024/04/15 11:49:08;;;;;;;9.32;2.20;;;13.30;99.90;;;;;;5438605;26;20097;-75
2024/04/15 11:51:37;;;;;;;7.93;2.65;;;13.30;99.90;;;;;;5436426;26;20025;-72
2024/04/15 11:54:02;;;;;;;7.35;2.15;;;13.30;99.90;;;;;;5430764;26;20009;-75
2024/04/15 11:56:28;;;;;;;6.15;2.05;;;13.30;99.90;;;;;;5440425;26;20003;-74
2024/04/15 11:58:54;;;;;;;11.82;2.22;;;13.30;99.90;;;;;;5441291;26;20014;-73
2024/04/15 12:01:20;;;;;;;8.80;3.13;;;13.20;99.90;;;;;;5432233;26;20048;-70
2024/04/15 12:03:46;;;;;;;7.78;2.38;;;13.10;99.90;;;;;;5436795;26;20011;-77
2024/04/15 12:06:12;;;;;;;7.90;2.75;;;13.20;99.90;;;;;;5437699;26;20361;-74
2024/04/15 12:08:37;;;;;;;8.25;3.42;;;13.20;99.90;;;;;;5436751;26;19999;-76
2024/04/15 12:11:22;;;;;;;6.25;2.97;;;13.30;99.90;;;;;;5440749;26;20022;-77
2024/04/15 12:13:50;;;;;;;11.32;3.47;;;13.20;99.90;;;;;;5434998;26;19999;-76
2024/04/15 12:16:16;;;;;;;7.65;3.45;;;13.40;99.90;;;;;;5437995;26;20096;-77
2024/04/15 12:18:42;;;;;;;11.40;3.22;;;13.40;99.90;;;;;;5440064;26;19999;-78
2024/04/15 12:21:07;;;;;;;10.20;3.95;;;13.30;99.90;;;;;;5435926;26;20331;-77
2024/04/15 12:23:33;;;;;;;8.80;2.97;;;13.40;99.90;;;;;;5430591;26;20512;-71
2024/04/15 12:25:59;;;;;;;6.22;3.15;;;13.50;99.90;;;;;;5431583;26;20078;-74
2024/04/15 12:28:25;;;;;;;7.22;2.95;;;13.50;99.90;;;;;;5433131;26;20335;-73
2024/04/15 12:30:51;;;;;;;6.03;2.72;;;13.50;99.90;;;;;;5439180;26;20056;-72
2024/04/15 12:33:17;;;;;;;8.82;2.70;;;13.60;99.90;;;;;;5438505;26;20140;-72
2024/04/15 12:35:45;;;;;;;15.35;3.83;;;13.60;99.90;;;;;;5433821;26;19999;-71
2024/04/15 12:38:11;;;;;;;6.10;2.70;;;13.70;99.90;;;;;;5432627;26;20111;-75